sensor_id;sensor_type;location;lat;lon;timestamp;P1;durP1;ratioP1;P2;durP2;ratioP2
66437;SDS011;54537;47.972;11.662;2023-08-06T00:00:51;8.48;;;3.38;;
66437;SDS011;54537;47.972;11.662;2023-08-06T00:03:17;7.32;;;3.90;;
66437;SDS011;54537;47.972;11.662;2023-08-06T00:05:44;5.65;;;3.30;;
66437;SDS011;54537;47.972;11.662;2023-08-06T00:08:10;10.60;;;3.70;;
66437;SDS011;54537;47.972;11.662;2023-08-06T00:10:37;7.45;;;3.65;;
66437;SDS011;54537;47.972;11.662;2023-08-06T00:13:07;6.95;;;3.58;;
66437;SDS011;54537;47.972;11.662;2023-08-06T00:15:33;5.80;;;3.10;;
66437;SDS011;54537;47.972;11.662;2023-08-06T00:18:00;6.70;;;3.13;;
66437;SDS011;54537;47.972;11.662;2023-08-06T00:20:27;6.60;;;2.97;;
66437;SDS011;54537;47.972;11.662;2023-08-06T00:22:53;5.68;;;2.92;;
66437;SDS011;54537;47.972;11.662;2023-08-06T00:25:20;7.40;;;3.38;;
66437;SDS011;54537;47.972;11.662;2023-08-06T00:27:46;6.40;;;2.65;;
66437;SDS011;54537;47.972;11.662;2023-08-06T00:30:14;6.68;;;2.90;;
66437;SDS011;54537;47.972;11.662;2023-08-06T00:32:41;5.35;;;2.78;;
66437;SDS011;54537;47.972;11.662;2023-08-06T00:35:07;6.13;;;3.28;;
66437;SDS011;54537;47.972;11.662;2023-08-06T00:37:34;6.63;;;3.05;;
66437;SDS011;54537;47.972;11.662;2023-08-06T00:40:01;7.90;;;3.67;;
66437;SDS011;54537;47.972;11.662;2023-08-06T00:42:27;7.15;;;3.50;;
66437;SDS011;54537;47.972;11.662;2023-08-06T00:44:54;8.38;;;3.50;;
66437;SDS011;54537;47.972;11.662;2023-08-06T00:47:22;7.15;;;3.22;;
66437;SDS011;54537;47.972;11.662;2023-08-06T00:49:48;7.15;;;3.65;;
66437;SDS011;54537;47.972;11.662;2023-08-06T00:52:15;8.45;;;3.42;;
66437;SDS011;54537;47.972;11.662;2023-08-06T00:54:41;6.55;;;3.63;;
66437;SDS011;54537;47.972;11.662;2023-08-06T00:57:08;7.53;;;3.85;;
66437;SDS011;54537;47.972;11.662;2023-08-06T00:59:35;7.75;;;3.63;;
66437;SDS011;54537;47.972;11.662;2023-08-06T01:02:02;6.90;;;3.38;;
66437;SDS011;54537;47.972;11.662;2023-08-06T01:04:30;8.65;;;3.50;;
66437;SDS011;54537;47.972;11.662;2023-08-06T01:07:01;6.07;;;3.35;;
66437;SDS011;54537;47.972;11.662;2023-08-06T01:09:34;10.45;;;3.78;;
66437;SDS011;54537;47.972;11.662;2023-08-06T01:12:05;6.90;;;3.50;;
66437;SDS011;54537;47.972;11.662;2023-08-06T01:14:37;8.38;;;3.60;;
66437;SDS011;54537;47.972;11.662;2023-08-06T01:17:12;7.07;;;3.50;;
66437;SDS011;54537;47.972;11.662;2023-08-06T01:19:40;8.02;;;4.22;;
66437;SDS011;54537;47.972;11.662;2023-08-06T01:22:08;7.53;;;3.85;;
66437;SDS011;54537;47.972;11.662;2023-08-06T01:24:34;10.07;;;3.95;;
66437;SDS011;54537;47.972;11.662;2023-08-06T01:27:03;9.68;;;4.53;;
66437;SDS011;54537;47.972;11.662;2023-08-06T01:29:31;7.63;;;3.97;;
66437;SDS011;54537;47.972;11.662;2023-08-06T01:32:00;7.03;;;3.45;;
66437;SDS011;54537;47.972;11.662;2023-08-06T01:34:27;7.68;;;3.42;;
66437;SDS011;54537;47.972;11.662;2023-08-06T01:36:55;10.27;;;3.65;;
66437;SDS011;54537;47.972;11.662;2023-08-06T01:39:23;8.80;;;4.15;;
66437;SDS011;54537;47.972;11.662;2023-08-06T01:41:50;9.52;;;3.60;;
66437;SDS011;54537;47.972;11.662;2023-08-06T01:44:16;8.32;;;3.50;;
66437;SDS011;54537;47.972;11.662;2023-08-06T01:46:43;6.78;;;3.78;;
66437;SDS011;54537;47.972;11.662;2023-08-06T01:49:09;6.00;;;3.50;;
66437;SDS011;54537;47.972;11.662;2023-08-06T01:51:36;10.57;;;3.85;;
66437;SDS011;54537;47.972;11.662;2023-08-06T01:54:02;6.18;;;3.10;;
66437;SDS011;54537;47.972;11.662;2023-08-06T01:56:30;9.63;;;3.75;;
66437;SDS011;54537;47.972;11.662;2023-08-06T01:58:57;10.52;;;3.35;;
66437;SDS011;54537;47.972;11.662;2023-08-06T02:01:23;5.38;;;2.80;;
66437;SDS011;54537;47.972;11.662;2023-08-06T02:03:50;6.70;;;3.20;;
66437;SDS011;54537;47.972;11.662;2023-08-06T02:06:16;6.43;;;2.83;;
66437;SDS011;54537;47.972;11.662;2023-08-06T02:08:43;8.65;;;2.85;;
66437;SDS011;54537;47.972;11.662;2023-08-06T02:11:09;6.65;;;3.38;;
66437;SDS011;54537;47.972;11.662;2023-08-06T02:13:37;6.13;;;2.75;;
66437;SDS011;54537;47.972;11.662;2023-08-06T02:16:03;9.82;;;3.13;;
66437;SDS011;54537;47.972;11.662;2023-08-06T02:18:33;6.40;;;2.95;;
66437;SDS011;54537;47.972;11.662;2023-08-06T02:20:59;5.78;;;2.88;;
66437;SDS011;54537;47.972;11.662;2023-08-06T02:23:26;6.80;;;2.80;;
66437;SDS011;54537;47.972;11.662;2023-08-06T02:25:56;5.38;;;2.63;;
66437;SDS011;54537;47.972;11.662;2023-08-06T02:28:24;6.05;;;3.00;;
66437;SDS011;54537;47.972;11.662;2023-08-06T02:30:51;5.75;;;2.58;;
66437;SDS011;54537;47.972;11.662;2023-08-06T02:33:18;4.95;;;2.42;;
66437;SDS011;54537;47.972;11.662;2023-08-06T02:35:45;4.85;;;2.85;;
66437;SDS011;54537;47.972;11.662;2023-08-06T02:38:11;5.63;;;2.75;;
66437;SDS011;54537;47.972;11.662;2023-08-06T02:40:42;8.25;;;2.65;;
66437;SDS011;54537;47.972;11.662;2023-08-06T02:43:09;7.90;;;2.55;;
66437;SDS011;54537;47.972;11.662;2023-08-06T02:45:35;5.35;;;2.78;;
66437;SDS011;54537;47.972;11.662;2023-08-06T02:48:04;4.45;;;2.20;;
66437;SDS011;54537;47.972;11.662;2023-08-06T02:50:30;4.88;;;2.58;;
66437;SDS011;54537;47.972;11.662;2023-08-06T02:52:57;7.00;;;2.45;;
66437;SDS011;54537;47.972;11.662;2023-08-06T02:55:23;6.55;;;2.53;;
66437;SDS011;54537;47.972;11.662;2023-08-06T02:57:50;5.38;;;2.30;;
66437;SDS011;54537;47.972;11.662;2023-08-06T03:00:16;7.32;;;2.70;;
66437;SDS011;54537;47.972;11.662;2023-08-06T03:02:43;5.47;;;3.03;;
66437;SDS011;54537;47.972;11.662;2023-08-06T03:05:11;5.80;;;2.50;;
66437;SDS011;54537;47.972;11.662;2023-08-06T03:07:37;5.18;;;2.80;;
66437;SDS011;54537;47.972;11.662;2023-08-06T03:10:04;5.28;;;2.45;;
66437;SDS011;54537;47.972;11.662;2023-08-06T03:12:31;6.35;;;2.58;;
66437;SDS011;54537;47.972;11.662;2023-08-06T03:14:57;4.95;;;2.45;;
66437;SDS011;54537;47.972;11.662;2023-08-06T03:17:24;4.57;;;2.42;;
66437;SDS011;54537;47.972;11.662;2023-08-06T03:19:50;5.10;;;2.40;;
66437;SDS011;54537;47.972;11.662;2023-08-06T03:22:18;4.30;;;2.10;;
66437;SDS011;54537;47.972;11.662;2023-08-06T03:24:45;5.55;;;2.40;;
66437;SDS011;54537;47.972;11.662;2023-08-06T03:27:11;5.55;;;2.53;;
66437;SDS011;54537;47.972;11.662;2023-08-06T03:29:38;5.25;;;2.55;;
66437;SDS011;54537;47.972;11.662;2023-08-06T03:32:05;3.90;;;2.13;;
66437;SDS011;54537;47.972;11.662;2023-08-06T03:34:32;6.00;;;2.40;;
66437;SDS011;54537;47.972;11.662;2023-08-06T03:36:58;5.20;;;2.50;;
66437;SDS011;54537;47.972;11.662;2023-08-06T03:39:26;4.78;;;2.40;;
66437;SDS011;54537;47.972;11.662;2023-08-06T03:41:52;4.60;;;2.05;;
66437;SDS011;54537;47.972;11.662;2023-08-06T03:44:18;4.28;;;1.83;;
66437;SDS011;54537;47.972;11.662;2023-08-06T03:46:45;5.70;;;2.22;;
66437;SDS011;54537;47.972;11.662;2023-08-06T03:49:11;4.30;;;2.10;;
66437;SDS011;54537;47.972;11.662;2023-08-06T03:51:38;4.28;;;1.98;;
66437;SDS011;54537;47.972;11.662;2023-08-06T03:54:04;4.40;;;2.17;;
66437;SDS011;54537;47.972;11.662;2023-08-06T03:56:32;3.75;;;2.10;;
66437;SDS011;54537;47.972;11.662;2023-08-06T03:58:59;4.63;;;2.20;;
66437;SDS011;54537;47.972;11.662;2023-08-06T04:01:25;3.25;;;1.80;;
66437;SDS011;54537;47.972;11.662;2023-08-06T04:03:52;3.65;;;1.88;;
66437;SDS011;54537;47.972;11.662;2023-08-06T04:06:18;5.88;;;2.40;;
66437;SDS011;54537;47.972;11.662;2023-08-06T04:08:45;4.40;;;2.00;;
66437;SDS011;54537;47.972;11.662;2023-08-06T04:11:11;5.55;;;2.17;;
66437;SDS011;54537;47.972;11.662;2023-08-06T04:13:41;4.70;;;2.35;;
66437;SDS011;54537;47.972;11.662;2023-08-06T04:16:08;6.45;;;2.10;;
66437;SDS011;54537;47.972;11.662;2023-08-06T04:18:35;3.33;;;1.90;;
66437;SDS011;54537;47.972;11.662;2023-08-06T04:21:01;5.43;;;2.22;;
66437;SDS011;54537;47.972;11.662;2023-08-06T04:23:28;4.03;;;2.15;;
66437;SDS011;54537;47.972;11.662;2023-08-06T04:25:56;3.83;;;2.00;;
66437;SDS011;54537;47.972;11.662;2023-08-06T04:28:22;4.35;;;2.05;;
66437;SDS011;54537;47.972;11.662;2023-08-06T04:30:50;4.03;;;1.98;;
66437;SDS011;54537;47.972;11.662;2023-08-06T04:33:18;4.60;;;1.92;;
66437;SDS011;54537;47.972;11.662;2023-08-06T04:35:45;4.57;;;2.22;;
66437;SDS011;54537;47.972;11.662;2023-08-06T04:38:11;4.38;;;1.92;;
66437;SDS011;54537;47.972;11.662;2023-08-06T04:40:38;4.15;;;2.03;;
66437;SDS011;54537;47.972;11.662;2023-08-06T04:43:04;4.88;;;1.75;;
66437;SDS011;54537;47.972;11.662;2023-08-06T04:45:31;3.92;;;1.70;;
66437;SDS011;54537;47.972;11.662;2023-08-06T04:47:59;7.72;;;2.13;;
66437;SDS011;54537;47.972;11.662;2023-08-06T04:50:25;4.88;;;2.15;;
66437;SDS011;54537;47.972;11.662;2023-08-06T04:52:52;4.53;;;1.88;;
66437;SDS011;54537;47.972;11.662;2023-08-06T04:55:19;3.42;;;1.73;;
66437;SDS011;54537;47.972;11.662;2023-08-06T04:57:46;6.95;;;1.90;;
66437;SDS011;54537;47.972;11.662;2023-08-06T05:00:12;4.13;;;1.80;;
66437;SDS011;54537;47.972;11.662;2023-08-06T05:02:39;4.03;;;2.00;;
66437;SDS011;54537;47.972;11.662;2023-08-06T05:05:07;3.53;;;1.70;;
66437;SDS011;54537;47.972;11.662;2023-08-06T05:07:34;3.40;;;1.80;;
66437;SDS011;54537;47.972;11.662;2023-08-06T05:10:00;4.22;;;2.00;;
66437;SDS011;54537;47.972;11.662;2023-08-06T05:12:28;6.28;;;2.33;;
66437;SDS011;54537;47.972;11.662;2023-08-06T05:14:54;5.80;;;2.03;;
66437;SDS011;54537;47.972;11.662;2023-08-06T05:17:21;3.00;;;1.70;;
66437;SDS011;54537;47.972;11.662;2023-08-06T05:19:49;4.85;;;2.00;;
66437;SDS011;54537;47.972;11.662;2023-08-06T05:22:17;11.48;;;2.60;;
66437;SDS011;54537;47.972;11.662;2023-08-06T05:24:43;5.35;;;1.67;;
66437;SDS011;54537;47.972;11.662;2023-08-06T05:27:10;3.92;;;1.80;;
66437;SDS011;54537;47.972;11.662;2023-08-06T05:29:36;5.93;;;1.63;;
66437;SDS011;54537;47.972;11.662;2023-08-06T05:32:03;2.80;;;1.58;;
66437;SDS011;54537;47.972;11.662;2023-08-06T05:34:30;4.38;;;1.90;;
66437;SDS011;54537;47.972;11.662;2023-08-06T05:36:56;4.35;;;1.95;;
66437;SDS011;54537;47.972;11.662;2023-08-06T05:39:24;4.60;;;1.70;;
66437;SDS011;54537;47.972;11.662;2023-08-06T05:41:51;3.63;;;1.83;;
66437;SDS011;54537;47.972;11.662;2023-08-06T05:44:18;4.20;;;1.98;;
66437;SDS011;54537;47.972;11.662;2023-08-06T05:46:44;2.58;;;1.42;;
66437;SDS011;54537;47.972;11.662;2023-08-06T05:49:11;2.60;;;1.50;;
66437;SDS011;54537;47.972;11.662;2023-08-06T05:51:38;5.13;;;1.90;;
66437;SDS011;54537;47.972;11.662;2023-08-06T05:54:04;3.28;;;1.60;;
66437;SDS011;54537;47.972;11.662;2023-08-06T05:56:32;6.80;;;2.47;;
66437;SDS011;54537;47.972;11.662;2023-08-06T05:58:58;3.58;;;1.73;;
66437;SDS011;54537;47.972;11.662;2023-08-06T06:01:25;3.28;;;1.42;;
66437;SDS011;54537;47.972;11.662;2023-08-06T06:03:51;5.45;;;1.80;;
66437;SDS011;54537;47.972;11.662;2023-08-06T06:06:18;4.20;;;1.60;;
66437;SDS011;54537;47.972;11.662;2023-08-06T06:08:45;2.33;;;1.33;;
66437;SDS011;54537;47.972;11.662;2023-08-06T06:11:11;2.22;;;1.27;;
66437;SDS011;54537;47.972;11.662;2023-08-06T06:13:39;3.25;;;1.73;;
66437;SDS011;54537;47.972;11.662;2023-08-06T06:16:06;3.63;;;1.65;;
66437;SDS011;54537;47.972;11.662;2023-08-06T06:18:32;2.28;;;1.40;;
66437;SDS011;54537;47.972;11.662;2023-08-06T06:20:59;2.42;;;1.40;;
66437;SDS011;54537;47.972;11.662;2023-08-06T06:23:25;3.47;;;1.30;;
66437;SDS011;54537;47.972;11.662;2023-08-06T06:25:52;4.10;;;1.48;;
66437;SDS011;54537;47.972;11.662;2023-08-06T06:28:18;2.70;;;1.40;;
66437;SDS011;54537;47.972;11.662;2023-08-06T06:30:46;2.60;;;1.25;;
66437;SDS011;54537;47.972;11.662;2023-08-06T06:33:12;4.13;;;1.50;;
66437;SDS011;54537;47.972;11.662;2023-08-06T06:35:39;3.17;;;1.63;;
66437;SDS011;54537;47.972;11.662;2023-08-06T06:38:05;2.75;;;1.30;;
66437;SDS011;54537;47.972;11.662;2023-08-06T06:40:32;3.97;;;1.77;;
66437;SDS011;54537;47.972;11.662;2023-08-06T06:42:59;2.45;;;1.20;;
66437;SDS011;54537;47.972;11.662;2023-08-06T06:45:25;2.17;;;1.50;;
66437;SDS011;54537;47.972;11.662;2023-08-06T06:47:53;2.42;;;1.40;;
66437;SDS011;54537;47.972;11.662;2023-08-06T06:50:19;2.85;;;1.40;;
66437;SDS011;54537;47.972;11.662;2023-08-06T06:52:46;3.50;;;1.20;;
66437;SDS011;54537;47.972;11.662;2023-08-06T06:55:12;2.67;;;1.73;;
66437;SDS011;54537;47.972;11.662;2023-08-06T06:57:39;3.35;;;1.20;;
66437;SDS011;54537;47.972;11.662;2023-08-06T07:00:06;3.28;;;1.60;;
66437;SDS011;54537;47.972;11.662;2023-08-06T07:02:33;3.88;;;1.40;;
66437;SDS011;54537;47.972;11.662;2023-08-06T07:05:01;3.17;;;1.20;;
66437;SDS011;54537;47.972;11.662;2023-08-06T07:07:27;4.40;;;1.42;;
66437;SDS011;54537;47.972;11.662;2023-08-06T07:09:54;3.00;;;1.30;;
66437;SDS011;54537;47.972;11.662;2023-08-06T07:12:21;3.83;;;1.17;;
66437;SDS011;54537;47.972;11.662;2023-08-06T07:14:49;4.63;;;1.38;;
66437;SDS011;54537;47.972;11.662;2023-08-06T07:17:15;2.42;;;1.30;;
66437;SDS011;54537;47.972;11.662;2023-08-06T07:19:42;3.92;;;1.20;;
66437;SDS011;54537;47.972;11.662;2023-08-06T07:22:09;4.07;;;1.10;;
66437;SDS011;54537;47.972;11.662;2023-08-06T07:24:36;2.05;;;1.20;;
66437;SDS011;54537;47.972;11.662;2023-08-06T07:27:02;3.88;;;1.20;;
66437;SDS011;54537;47.972;11.662;2023-08-06T07:29:29;2.28;;;1.20;;
66437;SDS011;54537;47.972;11.662;2023-08-06T07:31:56;2.90;;;1.13;;
66437;SDS011;54537;47.972;11.662;2023-08-06T07:34:22;2.67;;;1.58;;
66437;SDS011;54537;47.972;11.662;2023-08-06T07:36:49;2.08;;;1.00;;
66437;SDS011;54537;47.972;11.662;2023-08-06T07:39:16;2.95;;;1.02;;
66437;SDS011;54537;47.972;11.662;2023-08-06T07:41:43;2.55;;;1.50;;
66437;SDS011;54537;47.972;11.662;2023-08-06T07:44:10;3.53;;;1.25;;
66437;SDS011;54537;47.972;11.662;2023-08-06T07:46:37;2.33;;;1.20;;
66437;SDS011;54537;47.972;11.662;2023-08-06T07:49:04;4.07;;;1.30;;
66437;SDS011;54537;47.972;11.662;2023-08-06T07:51:30;3.58;;;1.50;;
66437;SDS011;54537;47.972;11.662;2023-08-06T07:53:57;2.63;;;1.10;;
66437;SDS011;54537;47.972;11.662;2023-08-06T07:56:25;4.03;;;1.20;;
66437;SDS011;54537;47.972;11.662;2023-08-06T07:58:51;3.30;;;1.13;;
66437;SDS011;54537;47.972;11.662;2023-08-06T08:01:18;2.35;;;1.08;;
66437;SDS011;54537;47.972;11.662;2023-08-06T08:03:44;1.85;;;1.25;;
66437;SDS011;54537;47.972;11.662;2023-08-06T08:06:11;2.80;;;1.10;;
66437;SDS011;54537;47.972;11.662;2023-08-06T08:08:38;1.60;;;1.00;;
66437;SDS011;54537;47.972;11.662;2023-08-06T08:11:05;3.30;;;1.17;;
66437;SDS011;54537;47.972;11.662;2023-08-06T08:13:33;1.42;;;0.98;;
66437;SDS011;54537;47.972;11.662;2023-08-06T08:15:59;2.65;;;1.08;;
66437;SDS011;54537;47.972;11.662;2023-08-06T08:18:26;3.63;;;1.05;;
66437;SDS011;54537;47.972;11.662;2023-08-06T08:20:53;1.80;;;0.82;;
66437;SDS011;54537;47.972;11.662;2023-08-06T08:23:19;3.45;;;1.00;;
66437;SDS011;54537;47.972;11.662;2023-08-06T08:25:46;7.15;;;1.95;;
66437;SDS011;54537;47.972;11.662;2023-08-06T08:28:12;2.72;;;1.25;;
66437;SDS011;54537;47.972;11.662;2023-08-06T08:30:41;3.08;;;1.27;;
66437;SDS011;54537;47.972;11.662;2023-08-06T08:33:08;4.03;;;0.73;;
66437;SDS011;54537;47.972;11.662;2023-08-06T08:35:34;0.55;;;0.52;;
66437;SDS011;54537;47.972;11.662;2023-08-06T08:38:02;1.23;;;0.60;;
66437;SDS011;54537;47.972;11.662;2023-08-06T08:40:29;2.30;;;0.77;;
66437;SDS011;54537;47.972;11.662;2023-08-06T08:42:57;0.77;;;0.60;;
66437;SDS011;54537;47.972;11.662;2023-08-06T08:45:26;1.88;;;0.88;;
66437;SDS011;54537;47.972;11.662;2023-08-06T08:47:54;1.90;;;0.80;;
66437;SDS011;54537;47.972;11.662;2023-08-06T08:50:21;1.75;;;0.60;;
66437;SDS011;54537;47.972;11.662;2023-08-06T08:52:47;1.15;;;0.60;;
66437;SDS011;54537;47.972;11.662;2023-08-06T08:55:16;2.25;;;0.57;;
66437;SDS011;54537;47.972;11.662;2023-08-06T08:57:43;0.70;;;0.50;;
66437;SDS011;54537;47.972;11.662;2023-08-06T09:00:10;2.03;;;0.70;;
66437;SDS011;54537;47.972;11.662;2023-08-06T09:02:37;0.65;;;0.50;;
66437;SDS011;54537;47.972;11.662;2023-08-06T09:05:05;1.95;;;0.50;;
66437;SDS011;54537;47.972;11.662;2023-08-06T09:07:35;1.67;;;0.52;;
66437;SDS011;54537;47.972;11.662;2023-08-06T09:10:03;0.47;;;0.28;;
66437;SDS011;54537;47.972;11.662;2023-08-06T09:12:30;1.70;;;0.90;;
66437;SDS011;54537;47.972;11.662;2023-08-06T09:14:57;0.73;;;0.30;;
66437;SDS011;54537;47.972;11.662;2023-08-06T09:17:23;0.68;;;0.50;;
66437;SDS011;54537;47.972;11.662;2023-08-06T09:19:50;0.40;;;0.20;;
66437;SDS011;54537;47.972;11.662;2023-08-06T09:22:17;0.32;;;0.30;;
66437;SDS011;54537;47.972;11.662;2023-08-06T09:24:44;1.48;;;0.43;;
66437;SDS011;54537;47.972;11.662;2023-08-06T09:27:11;1.65;;;0.20;;
66437;SDS011;54537;47.972;11.662;2023-08-06T09:29:40;1.15;;;0.20;;
66437;SDS011;54537;47.972;11.662;2023-08-06T09:32:07;0.38;;;0.38;;
66437;SDS011;54537;47.972;11.662;2023-08-06T09:34:34;0.30;;;0.20;;
66437;SDS011;54537;47.972;11.662;2023-08-06T09:37:00;0.93;;;0.30;;
66437;SDS011;54537;47.972;11.662;2023-08-06T09:39:29;0.65;;;0.65;;
66437;SDS011;54537;47.972;11.662;2023-08-06T09:41:56;0.95;;;0.57;;
66437;SDS011;54537;47.972;11.662;2023-08-06T09:44:24;2.50;;;0.50;;
66437;SDS011;54537;47.972;11.662;2023-08-06T09:46:52;1.48;;;0.60;;
66437;SDS011;54537;47.972;11.662;2023-08-06T09:49:20;0.57;;;0.50;;
66437;SDS011;54537;47.972;11.662;2023-08-06T09:51:48;1.85;;;0.68;;
66437;SDS011;54537;47.972;11.662;2023-08-06T09:54:16;0.30;;;0.30;;
66437;SDS011;54537;47.972;11.662;2023-08-06T09:56:44;1.50;;;0.40;;
66437;SDS011;54537;47.972;11.662;2023-08-06T09:59:11;0.30;;;0.30;;
66437;SDS011;54537;47.972;11.662;2023-08-06T10:01:37;2.08;;;0.38;;
66437;SDS011;54537;47.972;11.662;2023-08-06T10:04:04;0.80;;;0.50;;
66437;SDS011;54537;47.972;11.662;2023-08-06T10:06:33;0.20;;;0.20;;
66437;SDS011;54537;47.972;11.662;2023-08-06T10:09:00;0.22;;;0.20;;
66437;SDS011;54537;47.972;11.662;2023-08-06T10:11:27;0.47;;;0.40;;
66437;SDS011;54537;47.972;11.662;2023-08-06T10:13:57;0.75;;;0.40;;
66437;SDS011;54537;47.972;11.662;2023-08-06T10:16:27;0.25;;;0.25;;
66437;SDS011;54537;47.972;11.662;2023-08-06T10:18:54;1.90;;;0.40;;
66437;SDS011;54537;47.972;11.662;2023-08-06T10:21:22;1.58;;;0.50;;
66437;SDS011;54537;47.972;11.662;2023-08-06T10:23:53;0.35;;;0.35;;
66437;SDS011;54537;47.972;11.662;2023-08-06T10:26:20;0.20;;;0.20;;
66437;SDS011;54537;47.972;11.662;2023-08-06T10:28:51;0.28;;;0.20;;
66437;SDS011;54537;47.972;11.662;2023-08-06T10:31:19;0.30;;;0.17;;
66437;SDS011;54537;47.972;11.662;2023-08-06T10:33:46;1.67;;;0.30;;
66437;SDS011;54537;47.972;11.662;2023-08-06T10:36:14;0.20;;;0.20;;
66437;SDS011;54537;47.972;11.662;2023-08-06T10:38:44;0.32;;;0.32;;
66437;SDS011;54537;47.972;11.662;2023-08-06T10:41:15;0.68;;;0.40;;
66437;SDS011;54537;47.972;11.662;2023-08-06T10:43:42;0.60;;;0.47;;
66437;SDS011;54537;47.972;11.662;2023-08-06T10:46:10;0.30;;;0.30;;
66437;SDS011;54537;47.972;11.662;2023-08-06T10:48:39;0.35;;;0.20;;
66437;SDS011;54537;47.972;11.662;2023-08-06T10:51:07;0.47;;;0.20;;
66437;SDS011;54537;47.972;11.662;2023-08-06T10:53:34;0.17;;;0.17;;
66437;SDS011;54537;47.972;11.662;2023-08-06T10:56:00;1.38;;;0.30;;
66437;SDS011;54537;47.972;11.662;2023-08-06T10:58:30;0.20;;;0.20;;
66437;SDS011;54537;47.972;11.662;2023-08-06T11:00:57;0.75;;;0.40;;
66437;SDS011;54537;47.972;11.662;2023-08-06T11:03:26;0.30;;;0.30;;
66437;SDS011;54537;47.972;11.662;2023-08-06T11:05:54;1.83;;;0.55;;
66437;SDS011;54537;47.972;11.662;2023-08-06T11:08:23;0.30;;;0.30;;
66437;SDS011;54537;47.972;11.662;2023-08-06T11:10:49;0.85;;;0.20;;
66437;SDS011;54537;47.972;11.662;2023-08-06T11:13:16;6.22;;;0.40;;
66437;SDS011;54537;47.972;11.662;2023-08-06T11:15:43;0.10;;;0.10;;
66437;SDS011;54537;47.972;11.662;2023-08-06T11:18:09;0.50;;;0.50;;
66437;SDS011;54537;47.972;11.662;2023-08-06T11:20:36;0.20;;;0.20;;
66437;SDS011;54537;47.972;11.662;2023-08-06T11:23:04;0.82;;;0.60;;
66437;SDS011;54537;47.972;11.662;2023-08-06T11:25:30;0.30;;;0.30;;
66437;SDS011;54537;47.972;11.662;2023-08-06T11:27:57;0.70;;;0.40;;
66437;SDS011;54537;47.972;11.662;2023-08-06T11:30:23;0.40;;;0.40;;
66437;SDS011;54537;47.972;11.662;2023-08-06T11:32:50;0.40;;;0.40;;
66437;SDS011;54537;47.972;11.662;2023-08-06T11:35:16;0.20;;;0.20;;
66437;SDS011;54537;47.972;11.662;2023-08-06T11:37:44;0.40;;;0.40;;
66437;SDS011;54537;47.972;11.662;2023-08-06T11:40:13;0.40;;;0.40;;
66437;SDS011;54537;47.972;11.662;2023-08-06T11:42:41;3.25;;;0.52;;
66437;SDS011;54537;47.972;11.662;2023-08-06T11:45:08;1.20;;;0.40;;
66437;SDS011;54537;47.972;11.662;2023-08-06T11:47:37;0.30;;;0.30;;
66437;SDS011;54537;47.972;11.662;2023-08-06T11:50:04;0.30;;;0.30;;
66437;SDS011;54537;47.972;11.662;2023-08-06T11:52:31;0.95;;;0.60;;
66437;SDS011;54537;47.972;11.662;2023-08-06T11:55:01;0.25;;;0.25;;
66437;SDS011;54537;47.972;11.662;2023-08-06T11:57:30;0.08;;;0.08;;
66437;SDS011;54537;47.972;11.662;2023-08-06T12:00:01;0.20;;;0.20;;
66437;SDS011;54537;47.972;11.662;2023-08-06T12:02:30;0.13;;;0.13;;
66437;SDS011;54537;47.972;11.662;2023-08-06T12:04:59;0.20;;;0.10;;
66437;SDS011;54537;47.972;11.662;2023-08-06T12:07:28;0.93;;;0.50;;
66437;SDS011;54537;47.972;11.662;2023-08-06T12:09:55;0.30;;;0.30;;
66437;SDS011;54537;47.972;11.662;2023-08-06T12:12:21;1.30;;;0.50;;
66437;SDS011;54537;47.972;11.662;2023-08-06T12:14:49;0.30;;;0.30;;
66437;SDS011;54537;47.972;11.662;2023-08-06T12:17:16;2.50;;;0.32;;
66437;SDS011;54537;47.972;11.662;2023-08-06T12:19:44;0.40;;;0.30;;
66437;SDS011;54537;47.972;11.662;2023-08-06T12:22:10;0.10;;;0.10;;
66437;SDS011;54537;47.972;11.662;2023-08-06T12:24:38;1.10;;;0.20;;
66437;SDS011;54537;47.972;11.662;2023-08-06T12:27:05;0.93;;;0.50;;
66437;SDS011;54537;47.972;11.662;2023-08-06T12:29:31;1.17;;;0.50;;
66437;SDS011;54537;47.972;11.662;2023-08-06T12:31:59;0.32;;;0.32;;
66437;SDS011;54537;47.972;11.662;2023-08-06T12:34:26;0.20;;;0.20;;
66437;SDS011;54537;47.972;11.662;2023-08-06T12:36:52;10.35;;;0.50;;
66437;SDS011;54537;47.972;11.662;2023-08-06T12:39:19;0.10;;;0.10;;
66437;SDS011;54537;47.972;11.662;2023-08-06T12:41:45;0.40;;;0.40;;
66437;SDS011;54537;47.972;11.662;2023-08-06T12:44:12;0.28;;;0.28;;
66437;SDS011;54537;47.972;11.662;2023-08-06T12:46:38;0.30;;;0.30;;
66437;SDS011;54537;47.972;11.662;2023-08-06T12:49:06;0.20;;;0.20;;
66437;SDS011;54537;47.972;11.662;2023-08-06T12:51:33;0.40;;;0.40;;
66437;SDS011;54537;47.972;11.662;2023-08-06T12:54:00;0.55;;;0.30;;
66437;SDS011;54537;47.972;11.662;2023-08-06T12:56:26;0.68;;;0.45;;
66437;SDS011;54537;47.972;11.662;2023-08-06T12:58:54;0.75;;;0.55;;
66437;SDS011;54537;47.972;11.662;2023-08-06T13:01:20;0.20;;;0.20;;
66437;SDS011;54537;47.972;11.662;2023-08-06T13:03:47;0.20;;;0.20;;
66437;SDS011;54537;47.972;11.662;2023-08-06T13:06:14;2.40;;;0.60;;
66437;SDS011;54537;47.972;11.662;2023-08-06T13:08:41;0.43;;;0.43;;
66437;SDS011;54537;47.972;11.662;2023-08-06T13:11:07;0.50;;;0.30;;
66437;SDS011;54537;47.972;11.662;2023-08-06T13:13:34;0.45;;;0.45;;
66437;SDS011;54537;47.972;11.662;2023-08-06T13:16:01;1.13;;;0.20;;
66437;SDS011;54537;47.972;11.662;2023-08-06T13:18:27;0.52;;;0.52;;
66437;SDS011;54537;47.972;11.662;2023-08-06T13:20:54;0.40;;;0.40;;
66437;SDS011;54537;47.972;11.662;2023-08-06T13:23:22;0.32;;;0.22;;
66437;SDS011;54537;47.972;11.662;2023-08-06T13:25:48;0.25;;;0.25;;
66437;SDS011;54537;47.972;11.662;2023-08-06T13:28:15;0.32;;;0.32;;
66437;SDS011;54537;47.972;11.662;2023-08-06T13:30:41;0.20;;;0.20;;
66437;SDS011;54537;47.972;11.662;2023-08-06T13:33:08;0.45;;;0.45;;
66437;SDS011;54537;47.972;11.662;2023-08-06T13:35:35;0.35;;;0.35;;
66437;SDS011;54537;47.972;11.662;2023-08-06T13:38:01;0.30;;;0.30;;
66437;SDS011;54537;47.972;11.662;2023-08-06T13:40:31;0.40;;;0.40;;
66437;SDS011;54537;47.972;11.662;2023-08-06T13:42:58;0.63;;;0.28;;
66437;SDS011;54537;47.972;11.662;2023-08-06T13:45:25;0.68;;;0.30;;
66437;SDS011;54537;47.972;11.662;2023-08-06T13:47:51;0.60;;;0.60;;
66437;SDS011;54537;47.972;11.662;2023-08-06T13:50:18;0.82;;;0.30;;
66437;SDS011;54537;47.972;11.662;2023-08-06T13:52:47;0.20;;;0.20;;
66437;SDS011;54537;47.972;11.662;2023-08-06T13:55:13;0.30;;;0.30;;
66437;SDS011;54537;47.972;11.662;2023-08-06T13:57:42;0.75;;;0.30;;
66437;SDS011;54537;47.972;11.662;2023-08-06T14:00:09;0.20;;;0.20;;
66437;SDS011;54537;47.972;11.662;2023-08-06T14:02:36;0.40;;;0.40;;
66437;SDS011;54537;47.972;11.662;2023-08-06T14:05:03;1.15;;;0.25;;
66437;SDS011;54537;47.972;11.662;2023-08-06T14:07:30;0.15;;;0.15;;
66437;SDS011;54537;47.972;11.662;2023-08-06T14:09:56;0.73;;;0.40;;
66437;SDS011;54537;47.972;11.662;2023-08-06T14:12:23;0.50;;;0.50;;
66437;SDS011;54537;47.972;11.662;2023-08-06T14:14:51;0.47;;;0.40;;
66437;SDS011;54537;47.972;11.662;2023-08-06T14:17:17;0.38;;;0.38;;
66437;SDS011;54537;47.972;11.662;2023-08-06T14:19:44;0.20;;;0.20;;
66437;SDS011;54537;47.972;11.662;2023-08-06T14:22:10;0.45;;;0.30;;
66437;SDS011;54537;47.972;11.662;2023-08-06T14:24:37;0.25;;;0.25;;
66437;SDS011;54537;47.972;11.662;2023-08-06T14:27:04;0.45;;;0.25;;
66437;SDS011;54537;47.972;11.662;2023-08-06T14:29:31;0.30;;;0.30;;
66437;SDS011;54537;47.972;11.662;2023-08-06T14:31:59;0.95;;;0.20;;